createdAt,value
2018-06-18T00:01:38.984Z,16.70
2018-06-18T00:04:06.689Z,16.70
2018-06-18T00:06:34.085Z,16.70
2018-06-18T00:09:01.460Z,16.70
2018-06-18T00:11:28.931Z,16.60
2018-06-18T00:13:56.476Z,16.70
2018-06-18T00:16:23.839Z,16.70
2018-06-18T00:18:51.281Z,16.70
2018-06-18T00:21:18.855Z,16.60
2018-06-18T00:23:46.298Z,16.70
2018-06-18T00:26:13.689Z,16.70
2018-06-18T00:28:41.082Z,16.70
2018-06-18T00:31:08.675Z,16.70
2018-06-18T00:33:36.007Z,16.70
2018-06-18T00:36:03.461Z,16.70
2018-06-18T00:38:30.803Z,16.70
2018-06-18T00:40:58.196Z,16.70
2018-06-18T00:43:25.504Z,16.80
2018-06-18T00:45:52.874Z,16.80
2018-06-18T00:48:20.218Z,16.90
2018-06-18T00:50:47.719Z,16.90
2018-06-18T00:53:15.060Z,17.00
2018-06-18T00:55:54.037Z,16.90
2018-06-18T00:58:21.346Z,17.00
2018-06-18T01:00:48.630Z,17.00
2018-06-18T01:03:15.990Z,17.00
2018-06-18T01:08:10.631Z,17.00
2018-06-18T01:10:38.098Z,17.10
2018-06-18T01:13:05.567Z,17.10
2018-06-18T01:15:33.006Z,17.00
2018-06-18T01:18:00.448Z,17.00
2018-06-18T01:20:27.864Z,17.00
2018-06-18T01:24:00.930Z,17.00
2018-06-18T01:26:28.386Z,17.10
2018-06-18T01:28:56.006Z,17.00
2018-06-18T01:31:23.496Z,17.00
2018-06-18T01:33:52.643Z,17.00
2018-06-18T01:36:19.999Z,17.00
2018-06-18T01:38:47.430Z,16.90
2018-06-18T01:41:14.794Z,16.80
2018-06-18T01:43:42.190Z,16.80
2018-06-18T01:46:09.581Z,16.70
2018-06-18T01:48:37.055Z,16.70
2018-06-18T01:51:04.502Z,16.70
2018-06-18T01:53:31.905Z,16.70
2018-06-18T01:55:59.326Z,16.70
2018-06-18T01:58:26.722Z,16.70
2018-06-18T02:00:54.138Z,16.70
2018-06-18T02:03:21.814Z,16.70
2018-06-18T02:05:49.190Z,16.80
2018-06-18T02:08:16.586Z,16.90
2018-06-18T02:10:44.086Z,16.90
2018-06-18T02:13:11.521Z,16.80
2018-06-18T02:15:38.973Z,16.90
2018-06-18T02:18:06.542Z,16.90
2018-06-18T02:20:33.966Z,17.00
2018-06-18T02:23:01.438Z,17.10
2018-06-18T02:25:28.909Z,16.90
2018-06-18T02:28:02.025Z,16.90
2018-06-18T02:33:07.846Z,16.80
2018-06-18T02:35:41.050Z,16.80
2018-06-18T02:38:14.353Z,16.80
2018-06-18T02:40:46.162Z,16.90
2018-06-18T02:43:14.913Z,16.90
2018-06-18T02:45:42.475Z,16.80
2018-06-18T02:48:10.129Z,16.80
2018-06-18T02:50:37.525Z,16.90
2018-06-18T02:53:05.126Z,16.90
2018-06-18T02:55:32.653Z,16.70
2018-06-18T02:58:00.109Z,16.80
2018-06-18T03:02:55.048Z,16.80
2018-06-18T03:05:22.474Z,16.70
2018-06-18T03:07:50.399Z,16.80
2018-06-18T03:10:17.841Z,16.80
2018-06-18T03:12:45.257Z,16.80
2018-06-18T03:15:12.683Z,16.90
2018-06-18T03:17:40.058Z,16.80
2018-06-18T03:20:13.379Z,16.70
2018-06-18T03:22:46.410Z,16.80
2018-06-18T03:25:19.605Z,16.70
2018-06-18T03:27:52.948Z,16.80
2018-06-18T03:30:20.452Z,16.80
2018-06-18T03:32:48.772Z,16.80
2018-06-18T03:35:16.142Z,16.60
2018-06-18T03:37:43.547Z,16.60
2018-06-18T03:40:10.945Z,16.60
2018-06-18T03:42:38.705Z,16.50
2018-06-18T03:45:13.654Z,16.50
2018-06-18T03:47:41.014Z,16.50
2018-06-18T03:50:08.458Z,16.50
2018-06-18T03:52:35.792Z,16.50
2018-06-18T03:57:33.570Z,16.60
2018-06-18T04:00:01.250Z,16.60
2018-06-18T04:02:46.577Z,16.60
2018-06-18T04:05:19.696Z,16.40
2018-06-18T04:07:58.839Z,16.40
2018-06-18T04:10:33.772Z,16.40
2018-06-18T04:13:01.435Z,16.50
2018-06-18T04:15:28.956Z,16.50
2018-06-18T04:17:56.222Z,16.60
2018-06-18T04:20:24.650Z,16.70
2018-06-18T04:22:51.995Z,16.80
2018-06-18T04:25:19.378Z,16.90
2018-06-18T04:27:46.842Z,16.70
2018-06-18T04:30:17.548Z,16.70
2018-06-18T04:32:44.930Z,16.70
2018-06-18T04:35:20.652Z,16.80
2018-06-18T04:37:48.054Z,17.00
2018-06-18T04:40:15.398Z,16.90
2018-06-18T04:42:48.406Z,17.00
2018-06-18T04:45:21.634Z,16.90
2018-06-18T04:47:54.861Z,16.80
2018-06-18T04:50:27.862Z,16.80
2018-06-18T04:52:55.267Z,16.80
2018-06-18T04:55:22.649Z,16.80
2018-06-18T04:57:50.054Z,17.00
2018-06-18T05:01:23.381Z,17.00
2018-06-18T05:03:50.862Z,17.10
2018-06-18T05:06:18.377Z,17.10
2018-06-18T05:09:54.308Z,17.20
2018-06-18T05:12:21.879Z,17.30
2018-06-18T05:14:49.573Z,17.30
2018-06-18T05:17:16.918Z,17.10
2018-06-18T05:19:44.362Z,17.10
2018-06-18T05:22:11.842Z,17.30
2018-06-18T05:24:39.299Z,17.40
2018-06-18T05:29:36.241Z,17.40
2018-06-18T05:32:03.626Z,17.60
2018-06-18T05:34:31.730Z,17.70
2018-06-18T05:37:01.596Z,17.60
2018-06-18T05:39:28.928Z,17.70
2018-06-18T05:41:56.255Z,17.70
2018-06-18T05:44:23.542Z,18.00
2018-06-18T05:46:51.106Z,17.80
2018-06-18T05:49:18.422Z,18.00
2018-06-18T05:51:45.768Z,17.80
2018-06-18T05:54:13.128Z,17.80
2018-06-18T05:56:40.482Z,17.70
2018-06-18T05:59:07.868Z,17.80
2018-06-18T06:01:35.312Z,17.80
2018-06-18T06:04:06.609Z,17.70
2018-06-18T06:06:33.977Z,17.50
2018-06-18T06:09:01.387Z,17.60
2018-06-18T06:11:28.821Z,17.60
2018-06-18T06:13:56.267Z,17.70
2018-06-18T06:16:23.722Z,17.80
2018-06-18T06:18:51.128Z,17.90
2018-06-18T06:21:18.420Z,17.70
2018-06-18T06:23:45.891Z,17.90
2018-06-18T06:26:13.761Z,17.90
2018-06-18T06:28:41.261Z,18.10
2018-06-18T06:31:08.600Z,18.20
2018-06-18T06:33:35.986Z,18.20
2018-06-18T06:36:04.524Z,18.30
2018-06-18T06:38:31.971Z,18.30
2018-06-18T06:40:59.362Z,18.50
2018-06-18T06:43:26.738Z,18.30
2018-06-18T06:45:54.131Z,18.30
2018-06-18T06:48:21.508Z,18.40
2018-06-18T06:50:49.475Z,18.50
2018-06-18T06:53:17.646Z,18.40
2018-06-18T06:55:45.026Z,18.60
2018-06-18T06:58:12.390Z,18.60
2018-06-18T07:00:40.645Z,18.40
2018-06-18T07:03:08.090Z,18.50
2018-06-18T07:05:35.518Z,18.70
2018-06-18T07:08:02.920Z,18.80
2018-06-18T07:10:30.326Z,19.10
2018-06-18T07:12:57.749Z,19.40
2018-06-18T07:15:25.148Z,19.40
2018-06-18T07:17:52.567Z,19.60
2018-06-18T07:20:19.882Z,19.50
2018-06-18T07:22:47.273Z,19.40
2018-06-18T07:25:14.842Z,19.50
2018-06-18T07:27:42.417Z,19.40
2018-06-18T07:32:37.496Z,18.90
2018-06-18T07:35:05.101Z,19.20
2018-06-18T07:37:32.694Z,19.20
2018-06-18T07:40:00.179Z,19.20
2018-06-18T07:42:27.798Z,19.40
2018-06-18T07:44:55.183Z,19.40
2018-06-18T07:47:22.632Z,19.40
2018-06-18T07:49:50.051Z,19.40
2018-06-18T07:52:17.439Z,19.60
2018-06-18T07:54:44.851Z,19.70
2018-06-18T07:57:12.229Z,19.60
2018-06-18T07:59:39.656Z,19.80
2018-06-18T08:02:07.160Z,19.80
2018-06-18T08:04:34.625Z,19.00
2018-06-18T08:07:02.049Z,19.10
2018-06-18T08:09:29.354Z,19.00
2018-06-18T08:11:56.724Z,19.40
2018-06-18T08:14:24.150Z,19.40
2018-06-18T08:16:51.522Z,19.50
2018-06-18T08:19:18.927Z,19.30
2018-06-18T08:21:46.435Z,19.00
2018-06-18T08:24:13.826Z,19.30
2018-06-18T08:26:41.193Z,19.50
2018-06-18T08:29:08.586Z,19.60
2018-06-18T08:31:36.002Z,20.00
2018-06-18T08:34:03.310Z,20.10
2018-06-18T08:36:30.643Z,20.20
2018-06-18T08:38:58.072Z,20.20
2018-06-18T08:41:25.540Z,20.40
2018-06-18T08:43:52.982Z,20.50
2018-06-18T08:46:20.354Z,20.40
2018-06-18T08:48:53.358Z,20.70
2018-06-18T08:51:26.286Z,20.90
2018-06-18T08:53:59.322Z,20.90
2018-06-18T08:56:32.338Z,20.70
2018-06-18T09:00:03.202Z,20.30
2018-06-18T09:02:32.459Z,20.30
2018-06-18T09:05:05.650Z,20.90
2018-06-18T09:07:37.613Z,21.00
2018-06-18T09:10:05.453Z,20.40
2018-06-18T09:12:33.043Z,20.80
2018-06-18T09:15:00.415Z,20.60
2018-06-18T09:17:27.854Z,20.60
2018-06-18T09:19:56.246Z,21.00
2018-06-18T09:22:23.582Z,21.10
2018-06-18T09:24:51.047Z,20.90
2018-06-18T09:27:18.451Z,20.90
2018-06-18T09:29:51.475Z,20.60
2018-06-18T09:32:19.045Z,20.80
2018-06-18T09:34:46.223Z,21.30
2018-06-18T09:37:13.765Z,21.50
2018-06-18T09:39:41.135Z,21.80
2018-06-18T09:42:08.623Z,21.50
2018-06-18T09:44:35.979Z,21.80
2018-06-18T09:47:03.440Z,21.80
2018-06-18T09:49:36.397Z,22.10
2018-06-18T09:52:09.573Z,22.30
2018-06-18T09:54:42.771Z,22.40
2018-06-18T09:57:23.804Z,22.50
2018-06-18T09:59:56.513Z,22.50
2018-06-18T10:02:24.340Z,22.00
2018-06-18T10:04:51.788Z,22.30
2018-06-18T10:07:19.237Z,22.40
2018-06-18T10:09:46.643Z,22.60
2018-06-18T10:12:14.073Z,22.70
2018-06-18T10:14:41.562Z,22.00
2018-06-18T10:17:09.060Z,22.00
2018-06-18T10:19:36.545Z,22.20
2018-06-18T10:22:04.022Z,22.10
2018-06-18T10:24:31.436Z,22.50
2018-06-18T10:26:58.851Z,22.40
2018-06-18T10:29:26.206Z,22.30
2018-06-18T10:31:53.605Z,22.20
2018-06-18T10:34:26.664Z,22.20
2018-06-18T10:37:00.000Z,22.30
2018-06-18T10:39:33.213Z,21.80
2018-06-18T10:42:06.176Z,22.10
2018-06-18T10:44:33.582Z,22.00
2018-06-18T10:47:01.036Z,22.20
2018-06-18T10:49:28.480Z,22.20
2018-06-18T10:51:56.027Z,21.90
2018-06-18T10:54:23.470Z,22.00
2018-06-18T10:56:50.878Z,22.10
2018-06-18T10:59:18.214Z,22.60
2018-06-18T11:01:45.586Z,23.00
2018-06-18T11:04:18.838Z,23.20
2018-06-18T11:06:46.266Z,23.20
2018-06-18T11:09:13.643Z,22.70
2018-06-18T11:11:41.100Z,22.60
2018-06-18T11:14:08.547Z,23.00
2018-06-18T11:16:36.225Z,23.10
2018-06-18T11:19:08.978Z,23.40
2018-06-18T11:21:41.967Z,23.20
2018-06-18T11:24:14.920Z,23.00
2018-06-18T11:26:48.143Z,23.00
2018-06-18T11:29:15.482Z,23.40
2018-06-18T11:31:42.884Z,22.80
2018-06-18T11:34:10.220Z,22.80
2018-06-18T11:36:37.613Z,23.00
2018-06-18T11:39:06.929Z,23.40
2018-06-18T11:41:34.998Z,23.40
2018-06-18T11:44:02.892Z,23.60
2018-06-18T11:46:30.263Z,23.90
2018-06-18T11:48:58.332Z,23.30
2018-06-18T11:51:25.905Z,23.40
2018-06-18T11:53:54.303Z,23.80
2018-06-18T11:56:21.756Z,23.10
2018-06-18T11:58:54.805Z,23.30
2018-06-18T12:01:28.047Z,23.20
2018-06-18T12:04:01.216Z,23.40
2018-06-18T12:06:35.172Z,23.80
2018-06-18T12:09:10.781Z,23.90
2018-06-18T12:11:39.003Z,24.00
2018-06-18T12:14:06.880Z,23.10
2018-06-18T12:16:36.199Z,22.70
2018-06-18T12:21:32.219Z,23.00
2018-06-18T12:23:59.919Z,23.00
2018-06-18T12:26:27.341Z,23.30
2018-06-18T12:28:54.866Z,23.80
2018-06-18T12:31:22.387Z,24.00
2018-06-18T12:33:49.817Z,24.10
2018-06-18T12:36:17.284Z,23.90
2018-06-18T12:38:44.973Z,24.30
2018-06-18T12:41:12.869Z,24.80
2018-06-18T12:43:42.569Z,25.00
2018-06-18T12:46:15.641Z,24.90
2018-06-18T12:48:48.789Z,24.80
2018-06-18T12:51:21.793Z,24.10
2018-06-18T12:56:27.944Z,24.90
2018-06-18T12:58:55.351Z,25.30
2018-06-18T13:01:25.187Z,24.70
2018-06-18T13:03:52.709Z,23.80
2018-06-18T13:06:20.183Z,23.90
2018-06-18T13:08:47.761Z,24.00
2018-06-18T13:11:15.248Z,24.50
2018-06-18T13:13:42.722Z,24.40
2018-06-18T13:16:10.050Z,23.90
2018-06-18T13:18:37.477Z,23.70
2018-06-18T13:21:04.973Z,23.90
2018-06-18T13:23:32.385Z,23.90
2018-06-18T13:25:59.826Z,24.60
2018-06-18T13:28:27.306Z,25.20
2018-06-18T13:30:54.663Z,25.20
2018-06-18T13:33:21.990Z,24.20
2018-06-18T13:35:49.433Z,24.70
2018-06-18T13:38:22.482Z,25.10
2018-06-18T13:40:55.495Z,25.40
2018-06-18T13:43:28.674Z,25.60
2018-06-18T13:46:01.897Z,25.60
2018-06-18T13:48:35.137Z,25.00
2018-06-18T13:51:02.547Z,25.30
2018-06-18T13:53:30.158Z,25.40
2018-06-18T13:55:57.479Z,25.40
2018-06-18T13:58:24.914Z,25.20
2018-06-18T14:00:52.373Z,25.30
2018-06-18T14:05:47.154Z,25.20
2018-06-18T14:08:14.559Z,24.80
2018-06-18T14:10:41.965Z,25.00
2018-06-18T14:13:09.542Z,25.50
2018-06-18T14:15:36.886Z,25.90
2018-06-18T14:18:04.535Z,26.00
2018-06-18T14:20:31.831Z,26.30
2018-06-18T14:22:59.163Z,26.10
2018-06-18T14:25:26.544Z,26.20
2018-06-18T14:27:53.985Z,26.20
2018-06-18T14:30:27.251Z,26.20
2018-06-18T14:33:00.398Z,26.30
2018-06-18T14:35:33.698Z,25.80
2018-06-18T14:38:06.946Z,25.30
2018-06-18T14:40:34.467Z,25.30
2018-06-18T14:43:01.972Z,25.70
2018-06-18T14:45:29.379Z,26.10
2018-06-18T14:47:56.778Z,26.30
2018-06-18T14:50:24.150Z,25.90
2018-06-18T14:52:51.570Z,25.90
2018-06-18T14:55:18.998Z,25.80
2018-06-18T14:57:46.455Z,25.50
2018-06-18T15:00:22.912Z,25.30
2018-06-18T15:02:50.361Z,25.50
2018-06-18T15:05:17.995Z,25.70
2018-06-18T15:07:45.425Z,25.60
2018-06-18T15:10:12.967Z,24.80
2018-06-18T15:12:46.815Z,24.70
2018-06-18T15:15:19.809Z,24.70
2018-06-18T15:17:47.542Z,24.90
2018-06-18T15:20:14.890Z,24.80
2018-06-18T15:22:46.676Z,24.60
2018-06-18T15:25:14.858Z,24.50
2018-06-18T15:27:42.314Z,24.60
2018-06-18T15:30:09.745Z,24.70
2018-06-18T15:32:37.148Z,24.80
2018-06-18T15:35:04.618Z,24.80
2018-06-18T15:37:32.107Z,24.60
2018-06-18T15:39:59.484Z,24.40
2018-06-18T15:42:26.870Z,24.20
2018-06-18T15:44:54.243Z,24.30
2018-06-18T15:47:21.666Z,24.00
2018-06-18T15:49:49.168Z,24.30
2018-06-18T15:52:16.594Z,24.40
2018-06-18T15:54:44.113Z,24.60
2018-06-18T15:57:11.759Z,24.60
2018-06-18T15:59:39.193Z,24.60
2018-06-18T16:02:06.661Z,24.50
2018-06-18T16:04:34.144Z,24.30
2018-06-18T16:07:01.585Z,24.20
2018-06-18T16:09:29.041Z,24.10
2018-06-18T16:11:56.458Z,24.10
2018-06-18T16:14:23.822Z,24.00
2018-06-18T16:16:51.263Z,23.90
2018-06-18T16:24:13.979Z,24.00
2018-06-18T16:26:41.454Z,24.00
2018-06-18T16:29:08.918Z,24.20
2018-06-18T16:31:36.449Z,24.20
2018-06-18T16:34:09.732Z,24.30
2018-06-18T16:36:37.207Z,24.20
2018-06-18T16:39:07.359Z,24.20
2018-06-18T16:41:34.774Z,24.10
2018-06-18T16:44:02.403Z,23.90
2018-06-18T16:46:29.818Z,23.80
2018-06-18T16:48:57.262Z,23.80
2018-06-18T16:51:24.730Z,23.60
2018-06-18T16:53:52.212Z,23.50
2018-06-18T16:56:20.014Z,23.50
2018-06-18T16:58:47.551Z,23.40
2018-06-18T17:01:15.051Z,23.40
2018-06-18T17:03:42.897Z,23.30
2018-06-18T17:06:10.519Z,23.40
2018-06-18T17:08:38.022Z,23.40
2018-06-18T17:11:05.599Z,23.40
2018-06-18T17:13:33.093Z,23.30
2018-06-18T17:16:00.670Z,23.30
2018-06-18T17:18:28.238Z,23.30
2018-06-18T17:20:55.720Z,23.30
2018-06-18T17:23:23.348Z,23.20
2018-06-18T17:25:51.027Z,23.30
2018-06-18T17:28:18.438Z,23.30
2018-06-18T17:30:45.930Z,23.30
2018-06-18T17:33:13.495Z,23.30
2018-06-18T17:35:40.960Z,23.30
2018-06-18T17:38:08.420Z,23.30
2018-06-18T17:40:35.838Z,23.10
2018-06-18T17:43:03.289Z,23.00
2018-06-18T17:45:30.766Z,22.90
2018-06-18T17:47:58.194Z,22.90
2018-06-18T17:50:25.649Z,22.90
2018-06-18T17:52:53.119Z,22.90
2018-06-18T17:55:20.518Z,22.90
2018-06-18T17:57:47.989Z,22.90
2018-06-18T18:00:15.474Z,22.90
2018-06-18T18:02:43.039Z,22.70
2018-06-18T18:05:10.342Z,22.70
2018-06-18T18:07:37.802Z,22.60
2018-06-18T18:10:05.706Z,22.60
2018-06-18T18:12:42.832Z,22.70
2018-06-18T18:15:14.069Z,22.70
2018-06-18T18:17:46.130Z,22.60
2018-06-18T18:20:15.249Z,22.70
2018-06-18T18:25:34.842Z,22.60
2018-06-18T18:31:04.092Z,22.60
2018-06-18T18:33:36.806Z,22.60
2018-06-18T18:36:08.492Z,22.60
2018-06-18T18:39:40.609Z,22.50
2018-06-18T18:42:09.834Z,22.50
2018-06-18T18:44:54.200Z,22.40
2018-06-18T18:47:22.116Z,22.30
2018-06-18T18:50:41.204Z,22.30
2018-06-18T19:00:15.125Z,22.00
2018-06-18T19:05:24.040Z,21.80
2018-06-18T19:11:39.045Z,21.80
2018-06-18T19:14:07.749Z,21.60
2018-06-18T19:16:35.254Z,21.60
2018-06-18T19:19:03.680Z,21.40
2018-06-18T19:21:31.146Z,21.30
2018-06-18T19:23:58.604Z,21.30
2018-06-18T19:26:26.093Z,21.30
2018-06-18T19:28:53.810Z,21.20
2018-06-18T19:31:23.479Z,21.10
2018-06-18T19:33:59.510Z,21.00
2018-06-18T19:36:26.985Z,20.90
2018-06-18T19:38:54.405Z,20.90
2018-06-18T19:41:21.981Z,20.90
2018-06-18T19:43:50.044Z,20.90
2018-06-18T19:46:20.122Z,20.80
2018-06-18T19:48:51.790Z,20.80
2018-06-18T19:51:35.206Z,20.70
2018-06-18T19:54:03.723Z,20.70
2018-06-18T19:56:32.189Z,20.70
2018-06-18T19:59:00.027Z,20.60
2018-06-18T20:01:28.945Z,20.50
2018-06-18T20:03:56.906Z,20.40
2018-06-18T20:06:24.583Z,20.40
2018-06-18T20:11:19.587Z,20.30
2018-06-18T20:13:47.242Z,20.10
2018-06-18T20:16:14.866Z,20.10
2018-06-18T20:18:42.605Z,20.10
2018-06-18T20:21:10.238Z,20.00
2018-06-18T20:23:37.688Z,20.00
2018-06-18T20:26:09.531Z,19.90
2018-06-18T20:28:37.078Z,19.80
2018-06-18T20:31:04.864Z,19.80
2018-06-18T20:33:34.398Z,19.70
2018-06-18T20:36:05.910Z,19.70
2018-06-18T20:38:33.577Z,19.60
2018-06-18T20:41:02.762Z,19.60
2018-06-18T20:43:35.663Z,19.50
2018-06-18T20:46:04.282Z,19.50
2018-06-18T20:50:59.362Z,19.20
2018-06-18T20:53:26.879Z,19.20
2018-06-18T20:55:54.521Z,19.10
2018-06-18T20:58:22.024Z,19.00
2018-06-18T21:00:49.702Z,18.80
2018-06-18T21:03:17.797Z,18.70
2018-06-18T21:05:45.351Z,18.60
2018-06-18T21:08:13.313Z,18.60
2018-06-18T21:10:40.780Z,18.60
2018-06-18T21:13:11.322Z,18.50
2018-06-18T21:15:39.158Z,18.50
2018-06-18T21:18:06.775Z,18.50
2018-06-18T21:20:40.113Z,18.40
2018-06-18T21:23:07.510Z,18.30
2018-06-18T21:25:34.948Z,18.30
2018-06-18T21:28:02.413Z,18.20
2018-06-18T21:30:29.892Z,18.20
2018-06-18T21:32:57.251Z,18.10
2018-06-18T21:35:24.721Z,18.00
2018-06-18T21:37:52.181Z,18.00
2018-06-18T21:40:19.723Z,18.10
2018-06-18T21:42:47.105Z,18.20
2018-06-18T21:45:17.999Z,18.10
2018-06-18T21:47:46.328Z,17.80
2018-06-18T21:50:13.882Z,17.80
2018-06-18T21:52:41.313Z,17.80
2018-06-18T21:55:08.712Z,17.70
2018-06-18T21:57:36.147Z,17.70
2018-06-18T22:00:09.067Z,17.70
2018-06-18T22:02:36.493Z,17.80
2018-06-18T22:05:04.298Z,17.80
2018-06-18T22:07:31.841Z,17.60
2018-06-18T22:09:59.253Z,17.60
2018-06-18T22:12:26.723Z,17.50
2018-06-18T22:14:54.179Z,17.40
2018-06-18T22:17:21.615Z,17.10
2018-06-18T22:19:49.047Z,17.00
2018-06-18T22:22:16.459Z,17.00
2018-06-18T22:24:43.968Z,17.00
2018-06-18T22:27:11.395Z,17.00
2018-06-18T22:29:38.862Z,17.00
2018-06-18T22:32:06.298Z,16.90
2018-06-18T22:34:33.718Z,16.90
2018-06-18T22:37:01.259Z,17.10
2018-06-18T22:39:28.639Z,16.90
2018-06-18T22:41:56.041Z,16.80
2018-06-18T22:44:23.424Z,16.70
2018-06-18T22:46:50.876Z,16.70
2018-06-18T22:49:18.324Z,16.70
2018-06-18T22:51:45.759Z,16.60
2018-06-18T22:54:13.229Z,16.60
2018-06-18T22:56:40.552Z,16.60
2018-06-18T22:59:07.918Z,16.60
2018-06-18T23:01:35.442Z,16.70
2018-06-18T23:04:02.882Z,16.60
2018-06-18T23:06:30.215Z,16.60
2018-06-18T23:08:58.173Z,16.40
2018-06-18T23:11:25.658Z,16.50
2018-06-18T23:13:52.982Z,16.50
2018-06-18T23:16:20.490Z,16.30
2018-06-18T23:18:47.908Z,16.20
2018-06-18T23:21:15.253Z,16.20
2018-06-18T23:23:42.645Z,16.20
2018-06-18T23:26:10.070Z,16.20
2018-06-18T23:28:40.338Z,16.20
2018-06-18T23:31:07.689Z,16.10
2018-06-18T23:33:35.278Z,16.00
2018-06-18T23:36:02.712Z,16.10
2018-06-18T23:38:30.137Z,16.10
2018-06-18T23:40:57.630Z,16.20
2018-06-18T23:43:25.070Z,16.10
2018-06-18T23:45:52.476Z,16.10
2018-06-18T23:48:19.834Z,16.20
2018-06-18T23:50:47.196Z,16.20
2018-06-18T23:53:14.655Z,16.20
2018-06-18T23:55:42.092Z,16.10
2018-06-18T23:58:09.518Z,16.00
